Terminal Aerodrome Forecast
Issued by NWS

Home | Current Version | Previous Version | Text Only | Print | Product List | Glossary On
Versions: 1 2 3 4 5 6 7 8 9 10 11 12 13 14 15 16 17 18
000
FTUS42 KMLB 300531
TAFSUA
TAF
KSUA 300531Z 3006/3106 12005KT P6SM VCSH FEW025 SCT080 BKN120
     FM301400 16011KT P6SM VCSH SCT025 BKN050 BKN250
     FM301700 17011G17KT P6SM VCTS SCT025CB BKN050 BKN150
     FM310000 17011KT P6SM VCSH FEW020 SCT050 BKN150
      AMD LTD TO CLD AND WIND TIL 301100=

USA.gov is the U.S. government's official web portal to all federal, state and local government web resources and services.